createdAt,value
2023-02-18T00:06:33.491Z,2.58
2023-02-18T00:09:02.489Z,2.08
2023-02-18T00:11:31.522Z,3.50
2023-02-18T00:14:00.705Z,2.58
2023-02-18T00:16:28.428Z,1.73
2023-02-18T00:18:57.116Z,1.63
2023-02-18T00:21:23.980Z,1.85
2023-02-18T00:23:51.307Z,2.58
2023-02-18T00:26:19.319Z,1.98
2023-02-18T00:28:48.603Z,2.88
2023-02-18T00:31:20.804Z,5.18
2023-02-18T00:33:47.464Z,2.38
2023-02-18T00:36:16.617Z,3.50
2023-02-18T00:38:48.463Z,2.88
2023-02-18T00:41:15.570Z,2.97
2023-02-18T00:43:43.225Z,4.90
2023-02-18T00:46:10.514Z,3.17
2023-02-18T00:48:37.671Z,5.10
2023-02-18T00:51:05.253Z,3.20
2023-02-18T00:53:32.215Z,3.28
2023-02-18T00:55:59.021Z,3.22
2023-02-18T00:58:37.993Z,1.63
2023-02-18T01:01:07.513Z,4.28
2023-02-18T01:03:34.909Z,4.07
2023-02-18T01:06:01.499Z,1.92
2023-02-18T01:08:28.248Z,1.42
2023-02-18T01:10:57.584Z,1.95
2023-02-18T01:13:24.669Z,3.38
2023-02-18T01:15:51.686Z,1.42
2023-02-18T01:18:18.547Z,1.00
2023-02-18T01:20:45.661Z,1.38
2023-02-18T01:23:13.627Z,1.58
2023-02-18T01:25:40.328Z,2.30
2023-02-18T01:28:09.356Z,2.78
2023-02-18T01:30:35.956Z,3.00
2023-02-18T01:33:02.588Z,3.55
2023-02-18T01:35:29.328Z,2.92
2023-02-18T01:37:55.888Z,2.35
2023-02-18T01:40:25.826Z,2.55
2023-02-18T01:42:52.431Z,2.45
2023-02-18T01:45:34.358Z,2.03
2023-02-18T01:48:05.824Z,3.00
2023-02-18T01:50:37.287Z,2.67
2023-02-18T01:53:04.372Z,1.25
2023-02-18T01:55:31.817Z,2.00
2023-02-18T01:57:58.604Z,2.60
2023-02-18T02:00:25.251Z,1.05
2023-02-18T02:02:53.492Z,3.00
2023-02-18T02:05:22.595Z,2.20
2023-02-18T02:07:52.220Z,4.45
2023-02-18T02:10:19.491Z,1.10
2023-02-18T02:13:07.917Z,0.60
2023-02-18T02:16:01.653Z,7.78
2023-02-18T02:18:52.952Z,1.33
2023-02-18T02:21:22.218Z,0.70
2023-02-18T02:24:07.529Z,0.80
2023-02-18T02:26:52.885Z,4.95
2023-02-18T02:29:53.469Z,2.75
2023-02-18T02:32:57.007Z,4.78
2023-02-18T02:35:29.474Z,1.80
2023-02-18T02:38:28.129Z,3.90
2023-02-18T02:41:21.475Z,1.60
2023-02-18T02:44:20.751Z,1.83
2023-02-18T02:46:52.471Z,2.70
2023-02-18T02:49:25.701Z,1.52
2023-02-18T02:52:22.323Z,4.93
2023-02-18T02:54:49.779Z,1.95
2023-02-18T02:57:17.214Z,1.33
2023-02-18T02:59:50.218Z,1.52
2023-02-18T03:02:35.528Z,2.13
2023-02-18T03:05:32.198Z,3.35
2023-02-18T03:08:28.944Z,2.83
2023-02-18T03:11:11.904Z,2.95
2023-02-18T03:14:00.967Z,3.58
2023-02-18T03:16:33.383Z,4.13
2023-02-18T03:19:10.364Z,3.50
2023-02-18T03:21:48.524Z,3.13
2023-02-18T03:24:29.696Z,4.95
2023-02-18T03:27:03.005Z,3.13
2023-02-18T03:29:31.008Z,2.45
2023-02-18T03:32:03.659Z,1.60
2023-02-18T03:34:34.740Z,3.45
2023-02-18T03:37:03.144Z,1.30
2023-02-18T03:39:33.407Z,2.58
2023-02-18T03:42:00.903Z,3.72
2023-02-18T03:44:28.380Z,3.92
2023-02-18T03:46:55.630Z,2.70
2023-02-18T03:49:22.949Z,1.90
2023-02-18T03:51:50.530Z,3.70
2023-02-18T03:54:18.178Z,2.55
2023-02-18T03:56:45.833Z,4.28
2023-02-18T03:59:13.115Z,3.03
2023-02-18T04:01:40.546Z,4.22
2023-02-18T04:04:08.197Z,4.75
2023-02-18T04:06:36.009Z,5.10
2023-02-18T04:09:09.496Z,2.22
2023-02-18T04:11:41.036Z,1.90
2023-02-18T04:14:09.168Z,4.15
2023-02-18T04:16:36.279Z,3.83
2023-02-18T04:19:03.676Z,2.60
2023-02-18T04:21:31.210Z,4.93
2023-02-18T04:23:58.545Z,3.67
2023-02-18T04:26:26.289Z,3.60
2023-02-18T04:28:53.593Z,2.95
2023-02-18T04:31:20.982Z,4.53
2023-02-18T04:33:48.332Z,3.78
2023-02-18T04:36:15.831Z,6.85
2023-02-18T04:38:43.661Z,2.33
2023-02-18T04:41:13.201Z,1.65
2023-02-18T04:43:39.794Z,4.68
2023-02-18T04:46:07.522Z,4.38
2023-02-18T04:48:35.918Z,2.50
2023-02-18T04:51:03.625Z,5.63
2023-02-18T04:53:31.131Z,3.83
2023-02-18T04:55:57.786Z,3.47
2023-02-18T04:58:39.928Z,4.75
2023-02-18T05:01:07.809Z,2.92
2023-02-18T05:03:35.376Z,3.33
2023-02-18T05:06:02.959Z,3.08
2023-02-18T05:08:30.378Z,6.00
2023-02-18T05:10:56.954Z,2.45
2023-02-18T05:13:24.330Z,5.40
2023-02-18T05:15:51.867Z,2.63
2023-02-18T05:18:19.548Z,3.80
2023-02-18T05:20:47.114Z,4.28
2023-02-18T05:23:15.229Z,4.70
2023-02-18T05:25:42.654Z,4.70
2023-02-18T05:28:10.043Z,3.03
2023-02-18T05:30:36.825Z,3.03
2023-02-18T05:33:24.980Z,2.58
2023-02-18T05:35:52.645Z,4.30
2023-02-18T05:38:20.176Z,2.72
2023-02-18T05:40:48.222Z,6.88
2023-02-18T05:43:16.278Z,3.92
2023-02-18T05:45:43.686Z,5.38
2023-02-18T05:48:11.247Z,2.70
2023-02-18T05:50:38.488Z,3.25
2023-02-18T05:53:06.226Z,3.17
2023-02-18T05:55:38.174Z,3.80
2023-02-18T05:58:06.714Z,2.70
2023-02-18T06:00:34.351Z,4.53
2023-02-18T06:03:01.741Z,4.60
2023-02-18T06:05:29.230Z,5.75
2023-02-18T06:07:56.937Z,5.43
2023-02-18T06:10:24.388Z,3.40
2023-02-18T06:12:51.948Z,4.07
2023-02-18T06:15:19.680Z,3.15
2023-02-18T06:17:47.019Z,2.45
2023-02-18T06:20:14.244Z,4.25
2023-02-18T06:22:41.347Z,5.45
2023-02-18T06:25:08.811Z,5.30
2023-02-18T06:27:35.865Z,5.38
2023-02-18T06:30:02.971Z,5.95
2023-02-18T06:32:30.271Z,3.22
2023-02-18T06:34:57.393Z,2.92
2023-02-18T06:37:24.865Z,6.60
2023-02-18T06:39:54.540Z,3.88
2023-02-18T06:42:21.774Z,6.53
2023-02-18T06:44:49.159Z,5.55
2023-02-18T06:47:16.366Z,2.22
2023-02-18T06:49:43.596Z,6.47
2023-02-18T06:52:10.704Z,4.25
2023-02-18T06:54:38.088Z,5.18
2023-02-18T06:57:05.216Z,3.60
2023-02-18T06:59:32.023Z,5.60
2023-02-18T07:01:58.709Z,4.75
2023-02-18T07:04:25.413Z,3.90
2023-02-18T07:06:52.121Z,3.67
2023-02-18T07:09:18.760Z,4.65
2023-02-18T07:11:45.289Z,4.20
2023-02-18T07:14:11.956Z,6.72
2023-02-18T07:16:38.680Z,2.33
2023-02-18T07:19:05.279Z,5.18
2023-02-18T07:21:32.008Z,3.58
2023-02-18T07:23:58.787Z,2.65
2023-02-18T07:26:25.836Z,3.60
2023-02-18T07:28:52.509Z,8.20
2023-02-18T07:31:19.455Z,6.55
2023-02-18T07:33:46.106Z,8.10
2023-02-18T07:36:12.752Z,5.03
2023-02-18T07:38:40.835Z,6.68
2023-02-18T07:41:17.297Z,4.70
2023-02-18T07:43:43.988Z,9.95
2023-02-18T07:46:11.219Z,7.05
2023-02-18T07:48:38.228Z,6.03
2023-02-18T07:51:09.750Z,6.05
2023-02-18T07:53:37.756Z,6.82
2023-02-18T07:56:05.894Z,11.38
2023-02-18T07:58:42.115Z,4.90
2023-02-18T08:01:12.020Z,3.88
2023-02-18T08:03:39.653Z,3.95
2023-02-18T08:06:07.973Z,7.05
2023-02-18T08:08:37.090Z,3.88
2023-02-18T08:11:18.606Z,5.38
2023-02-18T08:13:47.497Z,5.15
2023-02-18T08:16:15.547Z,6.43
2023-02-18T08:18:43.205Z,4.10
2023-02-18T08:21:10.677Z,5.50
2023-02-18T08:23:38.098Z,5.40
2023-02-18T08:26:05.812Z,6.78
2023-02-18T08:28:33.797Z,4.13
2023-02-18T08:31:01.493Z,4.15
2023-02-18T08:33:28.263Z,3.15
2023-02-18T08:35:56.670Z,4.45
2023-02-18T08:38:25.009Z,6.43
2023-02-18T08:41:02.068Z,3.97
2023-02-18T08:43:29.268Z,4.03
2023-02-18T08:45:59.340Z,4.30
2023-02-18T08:48:27.464Z,4.80
2023-02-18T08:50:54.771Z,7.63
2023-02-18T08:53:22.367Z,3.00
2023-02-18T08:55:49.827Z,7.15
2023-02-18T08:58:18.165Z,8.07
2023-02-18T09:00:45.972Z,4.15
2023-02-18T09:03:14.473Z,4.45
2023-02-18T09:05:42.516Z,3.97
2023-02-18T09:08:10.003Z,4.97
2023-02-18T09:10:36.888Z,2.88
2023-02-18T09:13:05.374Z,5.10
2023-02-18T09:15:32.906Z,3.28
2023-02-18T09:18:00.517Z,5.97
2023-02-18T09:20:28.685Z,6.40
2023-02-18T09:22:56.287Z,7.22
2023-02-18T09:25:23.760Z,6.25
2023-02-18T09:27:51.820Z,3.47
2023-02-18T09:30:18.883Z,6.85
2023-02-18T09:32:46.279Z,3.72
2023-02-18T09:35:13.387Z,4.85
2023-02-18T09:37:41.732Z,4.90
2023-02-18T09:40:22.218Z,5.13
2023-02-18T09:42:50.068Z,7.57
2023-02-18T09:45:17.530Z,8.73
2023-02-18T09:47:46.464Z,7.07
2023-02-18T09:50:24.442Z,6.82
2023-02-18T09:52:53.857Z,7.55
2023-02-18T09:55:24.496Z,6.38
2023-02-18T09:57:59.965Z,7.75
2023-02-18T10:00:37.385Z,8.60
2023-02-18T10:03:13.558Z,4.57
2023-02-18T10:05:47.215Z,8.52
2023-02-18T10:08:34.514Z,9.18
2023-02-18T10:11:02.437Z,5.90
2023-02-18T10:13:33.648Z,5.30
2023-02-18T10:16:02.583Z,8.07
2023-02-18T10:18:33.902Z,6.15
2023-02-18T10:21:13.194Z,9.90
2023-02-18T10:23:53.902Z,6.60
2023-02-18T10:26:22.236Z,5.10
2023-02-18T10:28:49.258Z,7.20
2023-02-18T10:31:26.275Z,6.35
2023-02-18T10:34:18.085Z,7.72
2023-02-18T10:36:55.592Z,4.43
2023-02-18T10:39:45.210Z,11.55
2023-02-18T10:42:35.150Z,6.55
2023-02-18T10:45:31.109Z,4.40
2023-02-18T10:48:19.016Z,5.10
2023-02-18T10:50:47.472Z,4.45
2023-02-18T10:53:39.307Z,5.63
2023-02-18T10:56:07.930Z,11.50
2023-02-18T10:58:47.480Z,4.63
2023-02-18T11:01:17.902Z,4.53
2023-02-18T11:03:46.904Z,9.38
2023-02-18T11:06:31.573Z,4.32
2023-02-18T11:08:59.559Z,4.60
2023-02-18T11:11:32.237Z,4.47
2023-02-18T11:14:02.367Z,5.38
2023-02-18T11:16:41.250Z,6.60
2023-02-18T11:19:39.318Z,4.60
2023-02-18T11:22:19.991Z,3.78
2023-02-18T11:24:50.772Z,5.00
2023-02-18T11:27:36.395Z,4.35
2023-02-18T11:30:24.890Z,4.25
2023-02-18T11:32:59.854Z,3.60
2023-02-18T11:35:31.939Z,5.18
2023-02-18T11:38:01.054Z,6.38
2023-02-18T11:40:35.206Z,3.00
2023-02-18T11:43:13.950Z,3.83
2023-02-18T11:45:41.331Z,3.85
2023-02-18T11:48:24.705Z,5.22
2023-02-18T11:50:54.073Z,7.32
2023-02-18T11:53:29.344Z,5.38
2023-02-18T11:55:59.624Z,5.30
2023-02-18T11:58:48.348Z,6.43
2023-02-18T12:01:45.713Z,3.17
2023-02-18T12:04:18.356Z,5.72
2023-02-18T12:07:18.157Z,4.03
2023-02-18T12:09:53.425Z,4.68
2023-02-18T12:12:27.488Z,4.38
2023-02-18T12:14:57.595Z,2.15
2023-02-18T12:17:45.631Z,3.65
2023-02-18T12:20:21.402Z,2.53
2023-02-18T12:22:59.845Z,8.10
2023-02-18T12:25:34.290Z,3.35
2023-02-18T12:28:18.728Z,7.00
2023-02-18T12:30:58.571Z,4.15
2023-02-18T12:33:44.728Z,1.83
2023-02-18T12:36:30.032Z,5.07
2023-02-18T12:39:12.058Z,3.58
2023-02-18T12:42:04.003Z,4.07
2023-02-18T12:44:34.650Z,4.95
2023-02-18T12:47:23.494Z,1.98
2023-02-18T12:50:34.847Z,2.33
2023-02-18T12:53:30.696Z,3.33
2023-02-18T12:56:12.853Z,2.10
2023-02-18T12:59:01.449Z,3.90
2023-02-18T13:01:42.290Z,3.40
2023-02-18T13:04:25.707Z,3.13
2023-02-18T13:07:14.164Z,1.40
2023-02-18T13:10:25.831Z,2.22
2023-02-18T13:13:11.310Z,2.17
2023-02-18T13:15:43.323Z,2.65
2023-02-18T13:18:19.601Z,1.80
2023-02-18T13:20:58.579Z,2.38
2023-02-18T13:23:31.818Z,3.75
2023-02-18T13:26:02.126Z,5.38
2023-02-18T13:28:42.407Z,5.65
2023-02-18T13:31:55.664Z,5.47
2023-02-18T13:34:27.172Z,2.03
2023-02-18T13:37:23.861Z,2.20
2023-02-18T13:39:54.448Z,4.63
2023-02-18T13:42:27.980Z,4.35
2023-02-18T13:44:55.304Z,4.68
2023-02-18T13:47:42.351Z,5.78
2023-02-18T13:50:27.717Z,2.88
2023-02-18T13:53:16.276Z,2.92
2023-02-18T13:56:02.926Z,3.83
2023-02-18T13:58:30.439Z,3.75
2023-02-18T14:01:36.077Z,3.20
2023-02-18T14:04:02.922Z,2.90
2023-02-18T14:06:39.070Z,4.15
2023-02-18T14:09:26.043Z,2.17
2023-02-18T14:11:58.700Z,3.90
2023-02-18T14:14:25.378Z,2.35
2023-02-18T14:17:20.268Z,3.33
2023-02-18T14:20:03.221Z,2.22
2023-02-18T14:22:34.020Z,3.60
2023-02-18T14:25:18.177Z,5.18
2023-02-18T14:27:44.898Z,4.38
2023-02-18T14:30:32.386Z,6.25
2023-02-18T14:33:01.082Z,7.47
2023-02-18T14:35:49.550Z,6.07
2023-02-18T14:39:18.179Z,4.82
2023-02-18T14:42:04.126Z,3.90
2023-02-18T14:44:44.438Z,4.63
2023-02-18T14:47:51.230Z,4.55
2023-02-18T14:50:21.500Z,4.47
2023-02-18T14:52:59.411Z,4.50
2023-02-18T14:55:32.421Z,6.95
2023-02-18T14:58:05.027Z,8.10
2023-02-18T15:00:39.163Z,3.28
2023-02-18T15:03:34.494Z,7.28
2023-02-18T15:06:01.776Z,6.00
2023-02-18T15:08:40.190Z,6.40
2023-02-18T15:11:08.681Z,7.60
2023-02-18T15:13:46.160Z,9.43
2023-02-18T15:16:33.705Z,5.95
2023-02-18T15:19:05.732Z,6.47
2023-02-18T15:21:38.018Z,6.45
2023-02-18T15:24:35.262Z,6.70
2023-02-18T15:27:05.710Z,14.43
2023-02-18T15:29:35.134Z,9.15
2023-02-18T15:32:19.001Z,25.15
2023-02-18T15:34:49.656Z,11.82
2023-02-18T15:37:16.580Z,13.60
2023-02-18T15:39:43.979Z,12.00
2023-02-18T15:42:27.763Z,9.60
2023-02-18T15:45:19.869Z,11.05
2023-02-18T15:47:50.729Z,10.52
2023-02-18T15:50:32.230Z,12.18
2023-02-18T15:53:07.219Z,11.25
2023-02-18T15:55:39.185Z,13.77
2023-02-18T15:58:14.175Z,67.80
2023-02-18T16:00:48.184Z,51.78
2023-02-18T16:03:28.793Z,18.55
2023-02-18T16:06:13.102Z,16.10
2023-02-18T16:08:42.006Z,16.08
2023-02-18T16:11:14.007Z,16.98
2023-02-18T16:13:49.053Z,16.38
2023-02-18T16:16:29.521Z,12.40
2023-02-18T16:18:56.749Z,14.07
2023-02-18T16:21:31.314Z,16.95
2023-02-18T16:24:01.904Z,22.58
2023-02-18T16:26:30.188Z,15.50
2023-02-18T16:29:07.503Z,16.67
2023-02-18T16:31:35.146Z,19.58
2023-02-18T16:34:01.993Z,18.67
2023-02-18T16:36:29.401Z,23.17
2023-02-18T16:38:58.710Z,17.40
2023-02-18T16:41:26.086Z,20.55
2023-02-18T16:43:54.113Z,19.80
2023-02-18T16:46:24.164Z,18.35
2023-02-18T16:48:52.930Z,20.27
2023-02-18T16:51:35.001Z,27.17
2023-02-18T16:54:01.584Z,34.35
2023-02-18T16:56:33.890Z,30.90
2023-02-18T16:59:01.032Z,37.22
2023-02-18T17:01:31.836Z,30.70
2023-02-18T17:04:00.486Z,34.90
2023-02-18T17:06:28.097Z,30.05
2023-02-18T17:08:54.916Z,29.23
2023-02-18T17:11:25.993Z,32.92
2023-02-18T17:13:54.895Z,29.98
2023-02-18T17:16:23.306Z,30.35
2023-02-18T17:18:50.536Z,34.70
2023-02-18T17:21:20.954Z,33.50
2023-02-18T17:23:48.641Z,41.00
2023-02-18T17:26:21.585Z,32.58
2023-02-18T17:28:48.866Z,33.83
2023-02-18T17:31:19.716Z,26.10
2023-02-18T17:33:47.861Z,19.80
2023-02-18T17:36:14.861Z,22.48
2023-02-18T17:38:41.881Z,21.92
2023-02-18T17:41:08.544Z,28.35
2023-02-18T17:43:36.042Z,28.20
2023-02-18T17:46:03.347Z,22.02
2023-02-18T17:48:30.279Z,23.25
2023-02-18T17:50:57.909Z,20.17
2023-02-18T17:53:24.562Z,22.60
2023-02-18T17:55:54.154Z,17.42
2023-02-18T17:58:20.882Z,22.63
2023-02-18T18:00:53.966Z,19.48
2023-02-18T18:03:21.357Z,14.10
2023-02-18T18:05:52.157Z,17.00
2023-02-18T18:08:18.979Z,13.98
2023-02-18T18:10:53.099Z,12.65
2023-02-18T18:13:28.761Z,11.75
2023-02-18T18:15:57.995Z,10.43
2023-02-18T18:18:26.400Z,10.48
2023-02-18T18:20:56.762Z,9.60
2023-02-18T18:23:24.256Z,8.90
2023-02-18T18:25:56.542Z,8.45
2023-02-18T18:28:24.600Z,8.40
2023-02-18T18:30:54.113Z,8.75
2023-02-18T18:33:30.056Z,8.02
2023-02-18T18:35:58.877Z,5.57
2023-02-18T18:38:27.488Z,5.22
2023-02-18T18:40:54.935Z,6.05
2023-02-18T18:43:27.407Z,6.32
2023-02-18T18:45:54.983Z,7.60
2023-02-18T18:48:22.752Z,7.88
2023-02-18T18:50:51.749Z,6.07
2023-02-18T18:53:28.531Z,9.18
2023-02-18T18:55:57.833Z,7.60
2023-02-18T18:58:25.390Z,6.53
2023-02-18T19:01:00.037Z,6.18
2023-02-18T19:03:29.161Z,5.57
2023-02-18T19:05:58.539Z,6.70
2023-02-18T19:08:26.156Z,8.90
2023-02-18T19:10:55.558Z,5.88
2023-02-18T19:13:22.437Z,7.47
2023-02-18T19:15:51.334Z,4.50
2023-02-18T19:18:22.016Z,6.55
2023-02-18T19:20:49.672Z,4.72
2023-02-18T19:23:16.582Z,4.55
2023-02-18T19:25:43.547Z,5.07
2023-02-18T19:28:14.522Z,5.75
2023-02-18T19:30:42.492Z,4.45
2023-02-18T19:33:12.724Z,4.82
2023-02-18T19:35:41.947Z,3.60
2023-02-18T19:38:10.537Z,4.97
2023-02-18T19:40:39.770Z,4.55
2023-02-18T19:43:07.087Z,4.30
2023-02-18T19:45:36.947Z,5.97
2023-02-18T19:48:04.338Z,4.75
2023-02-18T19:50:32.360Z,7.07
2023-02-18T19:53:00.842Z,7.70
2023-02-18T19:55:31.860Z,5.80
2023-02-18T19:57:58.736Z,4.97
2023-02-18T20:00:26.770Z,6.45
2023-02-18T20:02:53.833Z,6.65
2023-02-18T20:05:21.946Z,6.93
2023-02-18T20:07:49.427Z,6.13
2023-02-18T20:10:20.179Z,6.28
2023-02-18T20:12:52.534Z,5.72
2023-02-18T20:15:20.819Z,6.20
2023-02-18T20:17:48.355Z,7.95
2023-02-18T20:20:16.640Z,5.28
2023-02-18T20:22:44.248Z,5.70
2023-02-18T20:25:11.954Z,7.85
2023-02-18T20:27:54.509Z,5.68
2023-02-18T20:30:27.741Z,5.47
2023-02-18T20:32:54.696Z,7.57
2023-02-18T20:35:22.614Z,6.75
2023-02-18T20:37:50.336Z,6.53
2023-02-18T20:40:18.459Z,6.47
2023-02-18T20:42:45.136Z,6.45
2023-02-18T20:45:12.829Z,7.50
2023-02-18T20:47:39.409Z,7.97
2023-02-18T20:50:06.725Z,6.85
2023-02-18T20:52:34.840Z,8.68
2023-02-18T20:55:02.485Z,9.23
2023-02-18T20:57:29.255Z,7.82
2023-02-18T20:59:59.519Z,7.00
2023-02-18T21:02:41.688Z,10.45
2023-02-18T21:05:08.334Z,7.72
2023-02-18T21:07:34.969Z,8.93
2023-02-18T21:10:01.687Z,8.98
2023-02-18T21:12:34.201Z,7.38
2023-02-18T21:15:01.026Z,8.90
2023-02-18T21:17:27.616Z,9.85
2023-02-18T21:19:55.214Z,8.10
2023-02-18T21:22:21.801Z,9.25
2023-02-18T21:24:50.745Z,10.85
2023-02-18T21:27:17.540Z,11.55
2023-02-18T21:29:44.109Z,9.98
2023-02-18T21:32:11.183Z,11.25
2023-02-18T21:34:37.813Z,10.50
2023-02-18T21:37:04.396Z,10.85
2023-02-18T21:39:31.028Z,10.65
2023-02-18T21:41:59.802Z,9.30
2023-02-18T21:44:40.196Z,11.35
2023-02-18T21:47:07.961Z,7.22
2023-02-18T21:49:34.622Z,8.05
2023-02-18T21:52:08.258Z,7.28
2023-02-18T21:54:39.341Z,8.00
2023-02-18T21:57:10.348Z,7.35
2023-02-18T21:59:37.686Z,7.03
2023-02-18T22:02:06.621Z,7.00
2023-02-18T22:04:36.163Z,6.72
2023-02-18T22:07:03.512Z,8.38
2023-02-18T22:09:30.169Z,8.68
2023-02-18T22:11:56.747Z,7.97
2023-02-18T22:14:23.710Z,9.05
2023-02-18T22:16:50.438Z,10.57
2023-02-18T22:19:17.071Z,10.40
2023-02-18T22:21:43.898Z,10.88
2023-02-18T22:24:12.873Z,11.80
2023-02-18T22:26:39.420Z,10.57
2023-02-18T22:29:06.193Z,11.63
2023-02-18T22:31:32.955Z,10.00
2023-02-18T22:34:00.498Z,9.77
2023-02-18T22:36:28.842Z,8.43
2023-02-18T22:38:55.736Z,7.82
2023-02-18T22:41:24.954Z,7.93
2023-02-18T22:43:56.391Z,9.25
2023-02-18T22:46:23.332Z,8.95
2023-02-18T22:48:50.397Z,8.85
2023-02-18T22:51:28.819Z,10.65
2023-02-18T22:53:57.559Z,10.45
2023-02-18T22:56:26.400Z,8.90
2023-02-18T22:58:54.836Z,12.48
2023-02-18T23:01:28.732Z,9.00
2023-02-18T23:03:57.121Z,9.23
2023-02-18T23:06:24.800Z,7.35
2023-02-18T23:08:51.439Z,8.23
2023-02-18T23:11:20.396Z,8.77
2023-02-18T23:14:08.411Z,8.73
2023-02-18T23:16:56.511Z,10.52
2023-02-18T23:19:24.602Z,8.43
2023-02-18T23:21:51.190Z,8.77
2023-02-18T23:24:18.537Z,7.78
2023-02-18T23:26:45.207Z,8.32
2023-02-18T23:29:12.051Z,7.40
2023-02-18T23:31:39.040Z,6.88
2023-02-18T23:34:07.457Z,6.53
2023-02-18T23:36:35.592Z,7.28
2023-02-18T23:39:05.555Z,6.88
2023-02-18T23:41:32.203Z,6.75
2023-02-18T23:43:58.817Z,7.07
2023-02-18T23:46:26.809Z,7.40
2023-02-18T23:48:53.988Z,7.40
2023-02-18T23:51:22.719Z,7.78
2023-02-18T23:53:50.397Z,7.60
2023-02-18T23:56:25.821Z,8.63
2023-02-18T23:58:57.690Z,8.25
